Airfield :
LOGIN :

Register | Disclaimer

   EN    FR    IT 

 










Legend :    VFR   Marginal VFR   IFR   Intensive IFR   Very Intensive IFR
Visi :
Ceiling :
>= 8 km
>= 3000ft
5 to 8 km
1000 to 3000 ft
1500m to 5 km
500 to 1000 ft
800 to 1500m
200 to 500 ft
< 800m
< 200 ft
Symbols :   Thunderstorms  Fog  Heavy snow  Heavy precipitations  Wind > 20 kt
SIGMETs :     Misc.  Thunderstorms  Icing  Turbulence  Mountain Waves  Volcanic Ashes







- Airport Elevation : 348 ft
- IATA code : STN
- Download approach charts


EGSS - London Stansted

CURRENT METAR :
  • 261220Z AUTO 08016KT 9999 FEW029 14/07 Q1025

EXPIRED METARs :
  • 261150Z AUTO 07016KT 9999 NCD 14/07 Q1025
  • 261120Z AUTO 08014KT 9999 NCD 13/07 Q1025
  • 261050Z AUTO 08013KT 9999 NCD 13/07 Q1025
  • 261020Z AUTO 07013KT 9999 NCD 12/07 Q1025
  • 260950Z AUTO 07012KT 9999 FEW017 11/07 Q1025

TAF TAF EGSS
Valid from the 26 at 12:00 until the 27 at 18:00 UTC


261101Z 2612/2718 08009KT CAVOK
BECMG 2621/2624 6000 BKN008
TEMPO 2700/2709 2000 BR BKN004
PROB30
TEMPO 2702/2708 0300 FG BKN001
BECMG 2709/2712 CAVOK
ATIS : +44 1279 669 325
No reported NOTAMs for that airfield.



MET'MAP, your aeronautical weather chart ! - Copyright ORBIFLY December 2007 - Disclaimer

ORBIFLY MET'MAP TEAM :

Programming & Development : Alexandra Zaïnal
Concept & Development : Baudouin d'Aumeries
Co-Development & Prog : Marc-Olivier Méhu
Technical & hardware support : Manuel Goepfert

Contact : metmap@orbifly.com




SOURCES & CREDITS :

   NOAA